sensor_id;sensor_type;location;lat;lon;timestamp;P1;durP1;ratioP1;P2;durP2;ratioP2
2049;SDS011;8478;49.208;8.806;2022-09-01T00:01:12;5.27;;;4.87;;
2049;SDS011;8478;49.208;8.806;2022-09-01T00:03:42;5.03;;;4.70;;
2049;SDS011;8478;49.208;8.806;2022-09-01T00:06:12;5.20;;;4.40;;
2049;SDS011;8478;49.208;8.806;2022-09-01T00:08:39;5.53;;;5.13;;
2049;SDS011;8478;49.208;8.806;2022-09-01T00:11:05;5.00;;;4.60;;
2049;SDS011;8478;49.208;8.806;2022-09-01T00:13:30;5.57;;;5.17;;
2049;SDS011;8478;49.208;8.806;2022-09-01T00:15:58;5.40;;;5.00;;
2049;SDS011;8478;49.208;8.806;2022-09-01T00:18:28;5.07;;;4.77;;
2049;SDS011;8478;49.208;8.806;2022-09-01T00:20:54;5.20;;;4.80;;
2049;SDS011;8478;49.208;8.806;2022-09-01T00:23:23;5.87;;;5.33;;
2049;SDS011;8478;49.208;8.806;2022-09-01T00:25:52;5.60;;;5.20;;
2049;SDS011;8478;49.208;8.806;2022-09-01T00:28:18;5.00;;;4.60;;
2049;SDS011;8478;49.208;8.806;2022-09-01T00:30:44;4.43;;;4.13;;
2049;SDS011;8478;49.208;8.806;2022-09-01T00:33:10;5.53;;;5.13;;
2049;SDS011;8478;49.208;8.806;2022-09-01T00:35:36;5.40;;;5.00;;
2049;SDS011;8478;49.208;8.806;2022-09-01T00:38:01;5.03;;;4.73;;
2049;SDS011;8478;49.208;8.806;2022-09-01T00:40:27;5.40;;;5.00;;
2049;SDS011;8478;49.208;8.806;2022-09-01T00:42:53;5.83;;;5.43;;
2049;SDS011;8478;49.208;8.806;2022-09-01T00:45:20;5.00;;;4.57;;
2049;SDS011;8478;49.208;8.806;2022-09-01T00:47:46;5.20;;;4.80;;
2049;SDS011;8478;49.208;8.806;2022-09-01T00:50:14;5.10;;;4.70;;
2049;SDS011;8478;49.208;8.806;2022-09-01T00:52:44;4.17;;;3.87;;
2049;SDS011;8478;49.208;8.806;2022-09-01T00:55:14;5.00;;;4.70;;
2049;SDS011;8478;49.208;8.806;2022-09-01T00:57:47;5.60;;;5.10;;
2049;SDS011;8478;49.208;8.806;2022-09-01T01:00:18;5.53;;;5.13;;
2049;SDS011;8478;49.208;8.806;2022-09-01T01:02:46;5.20;;;4.80;;
2049;SDS011;8478;49.208;8.806;2022-09-01T01:05:13;5.70;;;5.20;;
2049;SDS011;8478;49.208;8.806;2022-09-01T01:07:39;4.50;;;4.20;;
2049;SDS011;8478;49.208;8.806;2022-09-01T01:10:09;5.80;;;5.30;;
2049;SDS011;8478;49.208;8.806;2022-09-01T01:12:37;4.93;;;4.60;;
2049;SDS011;8478;49.208;8.806;2022-09-01T01:15:05;5.03;;;4.70;;
2049;SDS011;8478;49.208;8.806;2022-09-01T01:17:33;7.60;;;5.07;;
2049;SDS011;8478;49.208;8.806;2022-09-01T01:19:59;5.30;;;5.00;;
2049;SDS011;8478;49.208;8.806;2022-09-01T01:28:12;5.33;;;4.93;;
2049;SDS011;8478;49.208;8.806;2022-09-01T01:30:44;4.83;;;4.43;;
2049;SDS011;8478;49.208;8.806;2022-09-01T01:33:16;5.23;;;4.83;;
2049;SDS011;8478;49.208;8.806;2022-09-01T01:35:44;6.00;;;5.60;;
2049;SDS011;8478;49.208;8.806;2022-09-01T01:38:11;6.90;;;5.47;;
2049;SDS011;8478;49.208;8.806;2022-09-01T01:45:50;5.70;;;5.30;;
2049;SDS011;8478;49.208;8.806;2022-09-01T01:48:20;5.50;;;5.10;;
2049;SDS011;8478;49.208;8.806;2022-09-01T01:58:34;5.73;;;4.90;;
2049;SDS011;8478;49.208;8.806;2022-09-01T03:32:35;5.90;;;5.50;;
2049;SDS011;8478;49.208;8.806;2022-09-01T03:35:01;6.30;;;5.90;;
2049;SDS011;8478;49.208;8.806;2022-09-01T03:37:27;6.93;;;6.43;;
2049;SDS011;8478;49.208;8.806;2022-09-01T03:39:53;6.23;;;5.73;;
2049;SDS011;8478;49.208;8.806;2022-09-01T03:42:19;6.40;;;5.90;;
2049;SDS011;8478;49.208;8.806;2022-09-01T03:44:50;6.40;;;5.90;;
2049;SDS011;8478;49.208;8.806;2022-09-01T03:47:17;6.97;;;6.47;;
2049;SDS011;8478;49.208;8.806;2022-09-01T03:49:45;6.40;;;5.93;;
2049;SDS011;8478;49.208;8.806;2022-09-01T03:52:13;6.97;;;6.40;;
2049;SDS011;8478;49.208;8.806;2022-09-01T03:54:41;7.30;;;6.60;;
2049;SDS011;8478;49.208;8.806;2022-09-01T03:57:08;6.83;;;6.30;;
2049;SDS011;8478;49.208;8.806;2022-09-01T04:33:14;8.10;;;7.53;;
2049;SDS011;8478;49.208;8.806;2022-09-01T04:35:41;7.80;;;7.10;;
2049;SDS011;8478;49.208;8.806;2022-09-01T04:38:07;8.17;;;7.60;;
2049;SDS011;8478;49.208;8.806;2022-09-01T04:40:39;8.23;;;7.47;;
2049;SDS011;8478;49.208;8.806;2022-09-01T04:43:06;8.10;;;7.40;;
2049;SDS011;8478;49.208;8.806;2022-09-01T04:45:36;7.87;;;7.27;;
2049;SDS011;8478;49.208;8.806;2022-09-01T04:48:03;8.00;;;7.40;;
2049;SDS011;8478;49.208;8.806;2022-09-01T05:08:50;7.67;;;6.97;;
2049;SDS011;8478;49.208;8.806;2022-09-01T05:11:16;7.73;;;7.13;;
2049;SDS011;8478;49.208;8.806;2022-09-01T05:13:43;7.13;;;6.53;;
2049;SDS011;8478;49.208;8.806;2022-09-01T05:16:11;7.87;;;7.27;;
2049;SDS011;8478;49.208;8.806;2022-09-01T05:18:40;8.07;;;7.37;;
2049;SDS011;8478;49.208;8.806;2022-09-01T06:10:20;8.70;;;8.00;;
2049;SDS011;8478;49.208;8.806;2022-09-01T06:12:46;8.93;;;8.07;;
2049;SDS011;8478;49.208;8.806;2022-09-01T06:15:14;9.13;;;8.43;;
2049;SDS011;8478;49.208;8.806;2022-09-01T06:17:42;9.77;;;9.10;;
2049;SDS011;8478;49.208;8.806;2022-09-01T06:20:08;11.07;;;10.07;;
2049;SDS011;8478;49.208;8.806;2022-09-01T06:22:34;10.67;;;9.77;;
2049;SDS011;8478;49.208;8.806;2022-09-01T06:25:00;10.77;;;9.87;;
2049;SDS011;8478;49.208;8.806;2022-09-01T06:27:26;11.73;;;10.93;;
2049;SDS011;8478;49.208;8.806;2022-09-01T06:56:38;11.13;;;10.10;;
2049;SDS011;8478;49.208;8.806;2022-09-01T07:40:30;10.90;;;10.00;;
2049;SDS011;8478;49.208;8.806;2022-09-01T07:42:55;10.10;;;9.30;;
2049;SDS011;8478;49.208;8.806;2022-09-01T07:45:22;10.63;;;9.83;;
2049;SDS011;8478;49.208;8.806;2022-09-01T07:47:50;10.00;;;9.30;;
2049;SDS011;8478;49.208;8.806;2022-09-01T07:50:15;9.00;;;8.30;;
2049;SDS011;8478;49.208;8.806;2022-09-01T07:52:42;10.20;;;9.40;;
2049;SDS011;8478;49.208;8.806;2022-09-01T07:55:09;10.87;;;9.90;;
2049;SDS011;8478;49.208;8.806;2022-09-01T07:57:38;9.10;;;8.30;;
2049;SDS011;8478;49.208;8.806;2022-09-01T09:25:40;9.20;;;8.50;;
2049;SDS011;8478;49.208;8.806;2022-09-01T09:28:05;9.33;;;8.60;;
2049;SDS011;8478;49.208;8.806;2022-09-01T11:17:34;7.00;;;6.30;;
2049;SDS011;8478;49.208;8.806;2022-09-01T11:22:34;7.13;;;6.60;;
2049;SDS011;8478;49.208;8.806;2022-09-01T11:25:10;7.00;;;6.47;;
2049;SDS011;8478;49.208;8.806;2022-09-01T11:35:41;6.93;;;6.43;;
2049;SDS011;8478;49.208;8.806;2022-09-01T11:38:09;6.90;;;6.30;;
2049;SDS011;8478;49.208;8.806;2022-09-01T11:40:39;6.90;;;6.30;;
2049;SDS011;8478;49.208;8.806;2022-09-01T11:43:13;7.20;;;6.70;;
2049;SDS011;8478;49.208;8.806;2022-09-01T11:45:48;8.10;;;7.50;;
2049;SDS011;8478;49.208;8.806;2022-09-01T11:48:38;7.17;;;6.60;;
2049;SDS011;8478;49.208;8.806;2022-09-01T11:51:13;7.37;;;6.87;;
2049;SDS011;8478;49.208;8.806;2022-09-01T11:53:41;7.83;;;7.20;;
2049;SDS011;8478;49.208;8.806;2022-09-01T11:56:14;7.20;;;6.60;;
2049;SDS011;8478;49.208;8.806;2022-09-01T11:58:44;7.23;;;6.67;;
2049;SDS011;8478;49.208;8.806;2022-09-01T13:51:52;5.87;;;5.47;;
2049;SDS011;8478;49.208;8.806;2022-09-01T13:54:18;6.60;;;6.00;;
2049;SDS011;8478;49.208;8.806;2022-09-01T13:56:44;6.20;;;5.73;;
2049;SDS011;8478;49.208;8.806;2022-09-01T13:59:10;6.03;;;5.43;;
2049;SDS011;8478;49.208;8.806;2022-09-01T14:01:36;6.30;;;5.90;;
2049;SDS011;8478;49.208;8.806;2022-09-01T14:04:01;5.83;;;5.43;;
2049;SDS011;8478;49.208;8.806;2022-09-01T14:06:30;5.87;;;5.47;;
2049;SDS011;8478;49.208;8.806;2022-09-01T15:48:39;6.10;;;5.50;;
2049;SDS011;8478;49.208;8.806;2022-09-01T15:51:16;6.43;;;5.70;;
2049;SDS011;8478;49.208;8.806;2022-09-01T15:53:55;5.17;;;4.67;;
2049;SDS011;8478;49.208;8.806;2022-09-01T15:56:24;5.10;;;4.70;;
2049;SDS011;8478;49.208;8.806;2022-09-01T15:58:50;5.73;;;5.33;;
2049;SDS011;8478;49.208;8.806;2022-09-01T16:01:17;5.50;;;5.10;;
2049;SDS011;8478;49.208;8.806;2022-09-01T16:03:46;5.20;;;4.80;;
2049;SDS011;8478;49.208;8.806;2022-09-01T16:06:12;5.40;;;5.10;;
2049;SDS011;8478;49.208;8.806;2022-09-01T16:08:39;5.73;;;5.23;;
2049;SDS011;8478;49.208;8.806;2022-09-01T16:24:03;4.70;;;4.40;;
2049;SDS011;8478;49.208;8.806;2022-09-01T16:26:35;4.90;;;4.50;;
2049;SDS011;8478;49.208;8.806;2022-09-01T16:29:02;5.30;;;5.00;;
2049;SDS011;8478;49.208;8.806;2022-09-01T16:31:36;5.00;;;4.70;;
2049;SDS011;8478;49.208;8.806;2022-09-01T16:34:07;5.30;;;4.90;;
2049;SDS011;8478;49.208;8.806;2022-09-01T16:45:10;5.30;;;4.90;;
2049;SDS011;8478;49.208;8.806;2022-09-01T16:48:01;4.70;;;4.40;;
2049;SDS011;8478;49.208;8.806;2022-09-01T16:50:44;4.90;;;4.60;;
2049;SDS011;8478;49.208;8.806;2022-09-01T16:53:51;5.07;;;4.23;;
2049;SDS011;8478;49.208;8.806;2022-09-01T16:57:18;4.30;;;4.10;;
2049;SDS011;8478;49.208;8.806;2022-09-01T18:20:27;8.10;;;4.80;;
2049;SDS011;8478;49.208;8.806;2022-09-01T18:23:10;9.07;;;4.80;;
2049;SDS011;8478;49.208;8.806;2022-09-01T18:25:42;4.80;;;4.23;;
2049;SDS011;8478;49.208;8.806;2022-09-01T18:28:12;5.27;;;4.20;;
2049;SDS011;8478;49.208;8.806;2022-09-01T18:36:11;6.43;;;4.90;;
2049;SDS011;8478;49.208;8.806;2022-09-01T21:54:51;4.87;;;4.37;;
2049;SDS011;8478;49.208;8.806;2022-09-01T21:57:16;5.50;;;5.00;;
2049;SDS011;8478;49.208;8.806;2022-09-01T21:59:42;5.20;;;4.80;;
2049;SDS011;8478;49.208;8.806;2022-09-01T22:02:07;6.13;;;5.53;;
2049;SDS011;8478;49.208;8.806;2022-09-01T22:04:34;4.70;;;4.30;;
2049;SDS011;8478;49.208;8.806;2022-09-01T22:07:02;4.80;;;4.50;;
2049;SDS011;8478;49.208;8.806;2022-09-01T22:09:28;5.13;;;4.73;;
2049;SDS011;8478;49.208;8.806;2022-09-01T22:11:54;5.03;;;4.73;;
2049;SDS011;8478;49.208;8.806;2022-09-01T22:14:20;5.37;;;5.07;;
2049;SDS011;8478;49.208;8.806;2022-09-01T22:16:47;5.53;;;5.03;;
2049;SDS011;8478;49.208;8.806;2022-09-01T22:54:30;5.33;;;4.93;;
2049;SDS011;8478;49.208;8.806;2022-09-01T22:56:56;4.67;;;4.33;;
